Time;durP1;ratioP1;P1;durP2;ratioP2;P2;SDS_P1;SDS_P2;PMS_P1;PMS_P2;Temp;Humidity;BMP_temperature;BMP_pressure;BME280_temperature;BME280_humidity;BME280_pressure;Samples;Min_cycle;Max_cycle;Signal;HPM_P1;HPM_P2
2022/04/09 00:01:06;;;;;;;14.27;2.00;;;;;;;;;;5050248;28;20159;-64
2022/04/09 00:03:33;;;;;;;13.43;2.22;;;;;;;;;;5050780;28;20503;-64
2022/04/09 00:05:59;;;;;;;17.17;3.33;;;;;;;;;;5049735;28;20041;-64
2022/04/09 00:08:25;;;;;;;18.50;3.10;;;;;;;;;;5050573;28;20045;-64
2022/04/09 00:10:52;;;;;;;14.55;3.17;;;;;;;;;;5079369;28;20072;-65
2022/04/09 00:13:19;;;;;;;21.33;3.75;;;;;;;;;;5069848;28;20457;-65
2022/04/09 00:15:45;;;;;;;12.65;3.00;;;;;;;;;;5069738;28;20122;-64
2022/04/09 00:18:15;;;;;;;15.35;2.28;;;;;;;;;;5069877;28;20072;-64
2022/04/09 00:20:41;;;;;;;14.52;2.65;;;;;;;;;;5053696;28;20037;-64
2022/04/09 00:23:10;;;;;;;14.90;2.13;;;;;;;;;;5053719;28;20147;-64
2022/04/09 00:25:36;;;;;;;14.20;2.47;;;;;;;;;;5053588;28;20033;-64
2022/04/09 00:28:03;;;;;;;14.15;2.40;;;;;;;;;;5052708;28;20399;-65
2022/04/09 00:30:30;;;;;;;13.55;2.83;;;;;;;;;;5034453;28;20136;-64
2022/04/09 00:32:56;;;;;;;17.63;2.85;;;;;;;;;;5055428;28;20381;-64
2022/04/09 00:35:23;;;;;;;11.02;2.28;;;;;;;;;;5033490;28;20049;-64
2022/04/09 00:37:49;;;;;;;17.75;3.33;;;;;;;;;;5070094;28;20518;-65
2022/04/09 00:40:19;;;;;;;15.55;2.75;;;;;;;;;;5053059;28;20047;-64
2022/04/09 00:42:46;;;;;;;10.68;1.80;;;;;;;;;;5038273;28;20112;-65
2022/04/09 00:45:12;;;;;;;10.40;1.65;;;;;;;;;;5052980;28;20037;-64
2022/04/09 00:47:39;;;;;;;6.20;1.98;;;;;;;;;;5051596;28;21451;-65
2022/04/09 00:50:06;;;;;;;11.10;1.50;;;;;;;;;;5052812;28;20139;-64
2022/04/09 00:52:34;;;;;;;8.15;1.42;;;;;;;;;;5052771;28;20498;-64
2022/04/09 00:55:03;;;;;;;7.75;1.23;;;;;;;;;;5073760;28;20122;-64
2022/04/09 00:57:30;;;;;;;7.47;1.30;;;;;;;;;;5051770;28;20037;-64
2022/04/09 00:59:56;;;;;;;9.35;1.27;;;;;;;;;;5052697;28;20045;-64
2022/04/09 01:02:22;;;;;;;3.17;1.13;;;;;;;;;;5035230;28;20449;-64
2022/04/09 01:04:49;;;;;;;9.05;1.40;;;;;;;;;;5040033;28;20541;-64
2022/04/09 01:07:16;;;;;;;6.78;1.30;;;;;;;;;;5051029;28;20500;-64
2022/04/09 01:09:45;;;;;;;7.28;1.50;;;;;;;;;;5051431;28;20048;-64
2022/04/09 01:12:11;;;;;;;5.28;1.17;;;;;;;;;;5052644;28;20110;-64
2022/04/09 01:14:37;;;;;;;9.98;1.67;;;;;;;;;;5052924;28;20546;-64
2022/04/09 01:17:04;;;;;;;9.13;2.42;;;;;;;;;;5069326;28;20333;-64
2022/04/09 01:19:30;;;;;;;10.05;1.50;;;;;;;;;;5052692;28;20060;-64
2022/04/09 01:21:58;;;;;;;13.32;2.00;;;;;;;;;;5050462;28;20552;-64
2022/04/09 01:24:25;;;;;;;9.65;1.52;;;;;;;;;;5051782;28;20066;-64
2022/04/09 01:26:51;;;;;;;9.35;1.98;;;;;;;;;;5068313;28;20095;-64
2022/04/09 01:29:17;;;;;;;8.15;1.88;;;;;;;;;;5068807;28;20120;-64
2022/04/09 01:31:43;;;;;;;12.90;2.00;;;;;;;;;;5069092;28;20037;-64
2022/04/09 01:34:10;;;;;;;16.80;3.33;;;;;;;;;;5052358;28;20068;-64
2022/04/09 01:36:36;;;;;;;14.82;2.50;;;;;;;;;;5033395;28;20589;-65
2022/04/09 01:39:03;;;;;;;8.60;1.45;;;;;;;;;;5052233;28;20118;-64
2022/04/09 01:41:29;;;;;;;11.23;1.85;;;;;;;;;;5053062;28;20144;-65
2022/04/09 01:43:55;;;;;;;12.75;3.22;;;;;;;;;;5031922;28;20138;-65
2022/04/09 01:46:21;;;;;;;15.15;1.90;;;;;;;;;;5052936;28;20044;-64
2022/04/09 01:48:48;;;;;;;17.70;1.92;;;;;;;;;;5068143;28;20041;-64
2022/04/09 01:51:14;;;;;;;11.88;2.17;;;;;;;;;;5052228;28;20120;-64
2022/04/09 01:53:40;;;;;;;14.57;2.08;;;;;;;;;;5052477;28;20144;-64
2022/04/09 01:56:06;;;;;;;11.23;1.60;;;;;;;;;;5052728;28;20040;-64
2022/04/09 01:58:33;;;;;;;14.20;1.70;;;;;;;;;;5067494;28;20048;-64
2022/04/09 02:00:59;;;;;;;16.83;1.90;;;;;;;;;;5052039;28;20126;-64
2022/04/09 02:03:26;;;;;;;10.10;1.77;;;;;;;;;;5034236;28;20136;-64
2022/04/09 02:05:52;;;;;;;7.53;1.20;;;;;;;;;;5067408;28;20103;-64
2022/04/09 02:08:20;;;;;;;14.38;2.03;;;;;;;;;;5072483;28;20096;-64
2022/04/09 02:10:46;;;;;;;11.27;2.30;;;;;;;;;;5068213;28;20084;-64
2022/04/09 02:13:13;;;;;;;13.05;1.77;;;;;;;;;;5051950;28;20036;-64
2022/04/09 02:15:39;;;;;;;7.85;2.05;;;;;;;;;;5034148;28;20053;-64
2022/04/09 02:18:05;;;;;;;12.63;1.85;;;;;;;;;;5050774;28;20189;-64
2022/04/09 02:20:33;;;;;;;12.13;1.90;;;;;;;;;;5032049;28;20041;-65
2022/04/09 02:22:59;;;;;;;10.45;1.80;;;;;;;;;;5052141;28;20393;-64
2022/04/09 02:25:25;;;;;;;9.68;1.95;;;;;;;;;;5033599;28;20136;-64
2022/04/09 02:27:51;;;;;;;21.85;2.65;;;;;;;;;;5049752;28;20040;-64
2022/04/09 02:30:18;;;;;;;12.43;1.63;;;;;;;;;;5067529;28;20094;-64
2022/04/09 02:32:44;;;;;;;10.32;1.77;;;;;;;;;;5051701;28;20113;-65
2022/04/09 02:35:11;;;;;;;17.92;3.03;;;;;;;;;;5050576;28;20416;-64
2022/04/09 02:37:38;;;;;;;14.30;1.73;;;;;;;;;;5067925;28;20128;-64
2022/04/09 02:40:05;;;;;;;7.38;1.73;;;;;;;;;;5051450;28;20040;-65
2022/04/09 02:42:31;;;;;;;14.70;1.90;;;;;;;;;;5033724;28;20052;-64
2022/04/09 02:44:57;;;;;;;12.85;2.58;;;;;;;;;;5050045;28;20043;-64
2022/04/09 02:47:23;;;;;;;16.17;2.35;;;;;;;;;;5059013;28;20045;-64
2022/04/09 02:49:49;;;;;;;11.05;1.60;;;;;;;;;;5048251;28;21708;-64
2022/04/09 02:52:15;;;;;;;8.82;1.98;;;;;;;;;;5050588;28;20130;-64
2022/04/09 02:54:41;;;;;;;11.38;1.67;;;;;;;;;;5049792;28;20049;-64
2022/04/09 02:57:08;;;;;;;6.22;1.50;;;;;;;;;;5051390;28;20203;-64
2022/04/09 02:59:34;;;;;;;7.30;1.30;;;;;;;;;;5051536;28;20037;-64
2022/04/09 03:02:00;;;;;;;9.82;1.50;;;;;;;;;;5049275;28;20048;-64
2022/04/09 03:04:26;;;;;;;6.75;1.20;;;;;;;;;;5033657;28;20045;-64
2022/04/09 03:06:52;;;;;;;7.35;1.00;;;;;;;;;;5051138;28;20051;-64
2022/04/09 03:09:18;;;;;;;6.55;0.90;;;;;;;;;;5065851;28;20136;-64
2022/04/09 03:11:45;;;;;;;8.07;1.00;;;;;;;;;;5051271;28;20159;-64
2022/04/09 03:14:11;;;;;;;8.27;1.17;;;;;;;;;;5051136;28;20106;-64
2022/04/09 03:16:37;;;;;;;4.93;1.23;;;;;;;;;;5050435;28;20045;-64
2022/04/09 03:19:03;;;;;;;6.88;1.35;;;;;;;;;;5051197;28;20048;-64
2022/04/09 03:21:30;;;;;;;9.73;1.75;;;;;;;;;;5050004;28;20167;-64
2022/04/09 03:23:56;;;;;;;7.07;1.15;;;;;;;;;;5032470;28;20163;-64
2022/04/09 03:26:22;;;;;;;6.32;1.33;;;;;;;;;;5065441;28;20056;-64
2022/04/09 03:28:48;;;;;;;10.35;1.48;;;;;;;;;;5031434;28;20045;-64
2022/04/09 03:31:14;;;;;;;12.85;2.08;;;;;;;;;;5050975;28;20426;-64
2022/04/09 03:33:40;;;;;;;8.68;2.22;;;;;;;;;;5050893;28;20059;-64
2022/04/09 03:36:07;;;;;;;17.75;2.00;;;;;;;;;;5029173;28;20049;-64
2022/04/09 03:38:33;;;;;;;11.32;1.52;;;;;;;;;;5030608;28;20125;-65
2022/04/09 03:40:59;;;;;;;13.55;2.40;;;;;;;;;;5028289;28;20489;-64
2022/04/09 03:43:26;;;;;;;22.00;2.75;;;;;;;;;;5029588;28;20513;-64
2022/04/09 03:45:52;;;;;;;10.63;1.85;;;;;;;;;;5030398;28;20076;-64
2022/04/09 03:48:18;;;;;;;11.27;2.38;;;;;;;;;;5030529;28;20400;-64
2022/04/09 03:50:44;;;;;;;11.63;1.73;;;;;;;;;;5029668;28;20148;-64
2022/04/09 03:53:10;;;;;;;11.02;1.40;;;;;;;;;;5029306;28;20049;-64
2022/04/09 03:55:36;;;;;;;7.45;1.55;;;;;;;;;;5029182;28;20515;-64
2022/04/09 03:58:03;;;;;;;5.07;1.05;;;;;;;;;;5025892;28;20117;-64
2022/04/09 04:00:29;;;;;;;7.97;1.10;;;;;;;;;;5030580;28;20045;-64
2022/04/09 04:02:57;;;;;;;5.85;0.95;;;;;;;;;;5025660;28;20472;-64
2022/04/09 04:05:23;;;;;;;11.43;1.52;;;;;;;;;;5028763;28;20100;-64
2022/04/09 04:07:49;;;;;;;11.02;1.40;;;;;;;;;;5028961;28;20048;-64
2022/04/09 04:10:15;;;;;;;15.02;1.80;;;;;;;;;;5030779;28;20128;-65
2022/04/09 04:12:42;;;;;;;14.75;1.88;;;;;;;;;;5029939;28;20397;-65
2022/04/09 04:15:09;;;;;;;10.50;1.70;;;;;;;;;;5030916;28;20037;-64
2022/04/09 04:17:39;;;;;;;11.13;1.38;;;;;;;;;;5029960;28;20045;-64
2022/04/09 04:20:06;;;;;;;14.60;1.40;;;;;;;;;;5027389;28;20041;-64
2022/04/09 04:22:32;;;;;;;13.63;2.03;;;;;;;;;;5030203;28;20124;-64
2022/04/09 04:24:58;;;;;;;14.30;2.45;;;;;;;;;;5030772;28;20057;-65
2022/04/09 04:27:24;;;;;;;14.25;2.60;;;;;;;;;;5028158;28;20060;-64
2022/04/09 04:29:51;;;;;;;18.38;2.65;;;;;;;;;;5028309;28;20140;-64
2022/04/09 04:32:17;;;;;;;18.15;2.15;;;;;;;;;;5029431;28;20508;-64
2022/04/09 04:34:43;;;;;;;12.23;2.03;;;;;;;;;;5033096;28;20103;-65
2022/04/09 04:37:09;;;;;;;12.35;2.78;;;;;;;;;;5032613;28;20048;-64
2022/04/09 04:39:35;;;;;;;10.20;2.03;;;;;;;;;;5050206;28;20064;-64
2022/04/09 04:42:03;;;;;;;17.10;2.33;;;;;;;;;;5050293;28;21870;-64
2022/04/09 04:44:29;;;;;;;17.30;2.33;;;;;;;;;;5065040;28;20447;-65
2022/04/09 04:46:55;;;;;;;15.25;2.38;;;;;;;;;;5049401;28;20443;-64
2022/04/09 04:49:21;;;;;;;14.70;2.03;;;;;;;;;;5032480;28;20071;-64
2022/04/09 04:51:47;;;;;;;13.52;1.90;;;;;;;;;;5047375;28;20087;-65
2022/04/09 04:54:14;;;;;;;17.25;2.42;;;;;;;;;;5046087;28;20049;-64
2022/04/09 04:56:40;;;;;;;13.25;2.13;;;;;;;;;;5034977;28;20040;-65
2022/04/09 04:59:07;;;;;;;20.35;4.25;;;;;;;;;;5065900;28;20734;-65
2022/04/09 05:01:34;;;;;;;13.98;2.47;;;;;;;;;;5052656;28;20098;-65
2022/04/09 05:04:01;;;;;;;13.70;2.13;;;;;;;;;;5053224;28;20037;-65
2022/04/09 05:06:27;;;;;;;16.40;2.33;;;;;;;;;;5051556;28;20079;-64
2022/04/09 05:08:53;;;;;;;12.35;2.53;;;;;;;;;;5052020;28;20079;-64
2022/04/09 05:11:21;;;;;;;18.20;2.60;;;;;;;;;;5065889;28;20069;-64
2022/04/09 05:13:47;;;;;;;17.10;2.42;;;;;;;;;;5035275;28;20127;-64
2022/04/09 05:16:13;;;;;;;13.70;3.22;;;;;;;;;;5052218;28;20147;-65
2022/04/09 05:18:39;;;;;;;9.55;1.90;;;;;;;;;;5053574;28;20037;-65
2022/04/09 05:21:06;;;;;;;16.10;2.17;;;;;;;;;;5052935;28;20052;-65
2022/04/09 05:23:32;;;;;;;18.98;2.60;;;;;;;;;;5052094;28;20041;-64
2022/04/09 05:25:58;;;;;;;18.63;2.47;;;;;;;;;;5052872;28;20490;-64
2022/04/09 05:28:24;;;;;;;19.02;3.00;;;;;;;;;;5068515;28;20044;-65
2022/04/09 05:30:50;;;;;;;14.38;2.83;;;;;;;;;;5034471;28;20173;-65
2022/04/09 05:33:17;;;;;;;12.13;2.33;;;;;;;;;;5069227;28;20545;-64
2022/04/09 05:35:44;;;;;;;21.95;2.88;;;;;;;;;;5053229;28;20362;-65
2022/04/09 05:38:10;;;;;;;12.15;2.08;;;;;;;;;;5049451;28;20041;-64
2022/04/09 05:40:37;;;;;;;14.20;2.10;;;;;;;;;;5053136;28;20029;-65
2022/04/09 05:43:04;;;;;;;13.27;2.95;;;;;;;;;;5051949;28;20037;-65
2022/04/09 05:45:30;;;;;;;18.85;2.67;;;;;;;;;;5053435;28;20044;-64
2022/04/09 05:47:56;;;;;;;17.30;3.92;;;;;;;;;;5037652;28;20049;-64
2022/04/09 05:50:22;;;;;;;18.15;3.70;;;;;;;;;;5052243;28;20033;-65
2022/04/09 05:52:50;;;;;;;17.13;3.25;;;;;;;;;;5066449;28;20072;-64
2022/04/09 05:55:17;;;;;;;18.13;3.92;;;;;;;;;;5052771;28;20048;-64
2022/04/09 05:57:43;;;;;;;16.88;2.63;;;;;;;;;;5034042;28;20079;-64
2022/04/09 06:00:10;;;;;;;15.02;2.90;;;;;;;;;;5034652;28;20060;-64
2022/04/09 06:02:39;;;;;;;18.48;3.30;;;;;;;;;;5052489;28;20084;-64
2022/04/09 06:05:06;;;;;;;17.40;2.33;;;;;;;;;;5034326;28;20106;-64
2022/04/09 06:07:32;;;;;;;14.32;2.00;;;;;;;;;;5051647;28;20091;-65
2022/04/09 06:09:58;;;;;;;16.63;2.90;;;;;;;;;;5067961;28;20095;-65
2022/04/09 06:12:25;;;;;;;12.60;3.30;;;;;;;;;;5052032;28;20121;-64
2022/04/09 06:14:51;;;;;;;13.60;2.60;;;;;;;;;;5052197;28;20120;-64
2022/04/09 06:17:17;;;;;;;16.48;2.08;;;;;;;;;;5067885;28;20537;-65
2022/04/09 06:19:44;;;;;;;9.73;2.45;;;;;;;;;;5066830;28;20439;-65
2022/04/09 06:22:10;;;;;;;11.48;1.25;;;;;;;;;;5053312;28;20124;-65
2022/04/09 06:24:36;;;;;;;12.63;2.63;;;;;;;;;;5051602;28;20033;-65
2022/04/09 06:27:03;;;;;;;10.35;1.80;;;;;;;;;;5052209;28;20048;-64
2022/04/09 06:29:29;;;;;;;14.00;2.00;;;;;;;;;;5051661;28;20044;-64
2022/04/09 06:31:55;;;;;;;18.08;2.90;;;;;;;;;;5030520;28;20045;-64
2022/04/09 06:34:21;;;;;;;12.77;1.88;;;;;;;;;;5032938;28;20132;-65
2022/04/09 06:36:47;;;;;;;11.57;2.42;;;;;;;;;;5052195;28;20036;-65
2022/04/09 06:39:15;;;;;;;9.50;1.20;;;;;;;;;;5048125;28;20041;-65
2022/04/09 06:41:44;;;;;;;6.97;0.98;;;;;;;;;;5051707;28;20044;-64
2022/04/09 06:44:11;;;;;;;6.10;1.02;;;;;;;;;;5051813;28;20071;-65
2022/04/09 06:46:40;;;;;;;5.95;1.08;;;;;;;;;;5051507;28;20060;-65
2022/04/09 06:49:06;;;;;;;10.05;1.65;;;;;;;;;;5048417;28;20051;-64
2022/04/09 06:51:32;;;;;;;8.25;1.40;;;;;;;;;;5051633;28;20128;-65
2022/04/09 06:53:58;;;;;;;6.90;2.55;;;;;;;;;;5051189;28;20045;-65
2022/04/09 06:56:24;;;;;;;12.05;1.67;;;;;;;;;;5068004;28;20119;-65
2022/04/09 06:58:51;;;;;;;14.98;1.75;;;;;;;;;;5051096;28;20053;-65
2022/04/09 07:01:17;;;;;;;8.10;1.73;;;;;;;;;;5057410;28;20045;-64
2022/04/09 07:03:43;;;;;;;15.65;2.00;;;;;;;;;;5032903;28;20060;-65
2022/04/09 07:06:10;;;;;;;9.98;3.65;;;;;;;;;;5055056;28;20052;-65
2022/04/09 07:08:36;;;;;;;12.00;2.30;;;;;;;;;;5061908;28;20463;-65
2022/04/09 07:11:02;;;;;;;13.82;2.20;;;;;;;;;;5057162;28;20104;-65
2022/04/09 07:13:29;;;;;;;20.48;2.63;;;;;;;;;;5038315;28;20049;-65
2022/04/09 07:15:55;;;;;;;21.42;3.28;;;;;;;;;;5061401;28;20369;-65
2022/04/09 07:18:21;;;;;;;11.50;2.42;;;;;;;;;;5054796;28;20055;-65
2022/04/09 07:20:47;;;;;;;12.82;2.20;;;;;;;;;;5033821;28;20510;-65
2022/04/09 07:23:14;;;;;;;14.48;2.40;;;;;;;;;;5052787;28;20037;-65
2022/04/09 07:25:42;;;;;;;18.70;2.63;;;;;;;;;;5051259;28;20045;-64
2022/04/09 07:28:09;;;;;;;25.70;3.90;;;;;;;;;;5050742;28;20115;-65
2022/04/09 07:30:35;;;;;;;15.77;2.53;;;;;;;;;;5051478;28;20440;-65
2022/04/09 07:33:02;;;;;;;12.77;2.00;;;;;;;;;;5050710;28;20443;-65
2022/04/09 07:35:28;;;;;;;10.85;1.90;;;;;;;;;;5062731;28;20124;-65
2022/04/09 07:37:55;;;;;;;10.77;2.08;;;;;;;;;;5030265;28;20045;-65
2022/04/09 07:40:24;;;;;;;11.70;2.22;;;;;;;;;;5030750;28;20077;-65
2022/04/09 07:42:51;;;;;;;19.65;2.85;;;;;;;;;;5029873;28;20099;-65
2022/04/09 07:45:17;;;;;;;19.80;2.67;;;;;;;;;;5030832;28;20057;-65
2022/04/09 07:47:44;;;;;;;14.77;1.90;;;;;;;;;;5029302;28;20049;-65
2022/04/09 07:50:11;;;;;;;12.98;2.00;;;;;;;;;;5031395;28;20116;-65
2022/04/09 07:52:39;;;;;;;13.13;1.70;;;;;;;;;;5031853;28;20057;-65
2022/04/09 07:55:07;;;;;;;9.98;1.90;;;;;;;;;;5029168;28;20037;-65
2022/04/09 07:57:33;;;;;;;12.50;2.15;;;;;;;;;;5031015;28;20467;-65
2022/04/09 07:59:59;;;;;;;13.05;2.03;;;;;;;;;;5030369;28;20041;-65
2022/04/09 08:02:26;;;;;;;13.45;2.47;;;;;;;;;;5031593;28;20085;-65
2022/04/09 08:04:52;;;;;;;17.02;1.70;;;;;;;;;;5029766;28;20037;-65
2022/04/09 08:07:18;;;;;;;11.38;1.88;;;;;;;;;;5030309;28;20184;-65
2022/04/09 08:09:44;;;;;;;9.20;1.88;;;;;;;;;;5030860;28;20046;-65
2022/04/09 08:12:12;;;;;;;13.40;2.13;;;;;;;;;;5029673;28;20041;-65
2022/04/09 08:14:39;;;;;;;19.50;2.58;;;;;;;;;;5032094;28;20116;-65
2022/04/09 08:17:05;;;;;;;12.68;2.55;;;;;;;;;;5030798;28;20045;-65
2022/04/09 08:19:31;;;;;;;13.35;2.60;;;;;;;;;;5031200;28;20504;-65
2022/04/09 08:21:59;;;;;;;17.77;2.60;;;;;;;;;;5028703;28;20505;-65
2022/04/09 08:24:26;;;;;;;14.18;2.40;;;;;;;;;;5027439;28;20053;-64
2022/04/09 08:26:52;;;;;;;19.10;3.58;;;;;;;;;;5028505;28;20045;-64
2022/04/09 08:29:20;;;;;;;17.30;2.53;;;;;;;;;;5028904;28;20167;-64
2022/04/09 08:31:47;;;;;;;12.50;1.98;;;;;;;;;;5030854;28;20120;-65
2022/04/09 08:34:14;;;;;;;16.65;3.17;;;;;;;;;;5032273;28;20049;-65
2022/04/09 08:36:40;;;;;;;16.15;2.30;;;;;;;;;;5016493;28;20049;-65
2022/04/09 08:39:06;;;;;;;14.25;3.53;;;;;;;;;;5031450;28;20046;-65
2022/04/09 08:41:35;;;;;;;14.50;1.75;;;;;;;;;;5032886;28;20061;-65
2022/04/09 08:44:01;;;;;;;11.80;1.60;;;;;;;;;;5033350;28;20053;-65
2022/04/09 08:46:27;;;;;;;18.50;2.90;;;;;;;;;;5032805;28;20060;-65
2022/04/09 08:48:54;;;;;;;12.90;3.00;;;;;;;;;;5034320;28;20041;-64
2022/04/09 08:51:20;;;;;;;12.43;2.50;;;;;;;;;;5030865;28;20120;-64
2022/04/09 08:53:47;;;;;;;11.75;2.00;;;;;;;;;;5033416;28;20128;-65
2022/04/09 08:56:15;;;;;;;11.02;2.92;;;;;;;;;;5032758;28;20042;-65
2022/04/09 08:58:41;;;;;;;16.73;2.92;;;;;;;;;;5033696;28;20401;-65
2022/04/09 09:01:07;;;;;;;18.95;2.83;;;;;;;;;;5037452;28;20393;-65
2022/04/09 09:03:35;;;;;;;12.25;2.00;;;;;;;;;;5032282;28;20038;-65
2022/04/09 09:06:02;;;;;;;12.82;2.03;;;;;;;;;;5033796;28;20377;-65
2022/04/09 09:08:36;;;;;;;14.85;2.55;;;;;;;;;;5033619;28;20139;-65
2022/04/09 09:11:02;;;;;;;10.35;2.00;;;;;;;;;;5031952;28;20563;-65
2022/04/09 09:13:28;;;;;;;12.10;1.98;;;;;;;;;;5033037;28;20038;-65
2022/04/09 09:15:55;;;;;;;8.88;1.85;;;;;;;;;;5034929;28;20042;-65
2022/04/09 09:18:22;;;;;;;9.30;2.20;;;;;;;;;;5032755;28;20041;-65
2022/04/09 09:20:50;;;;;;;9.40;1.55;;;;;;;;;;5031902;28;20033;-65
2022/04/09 09:23:23;;;;;;;6.82;1.42;;;;;;;;;;5033875;28;20049;-65
2022/04/09 09:25:50;;;;;;;11.13;1.52;;;;;;;;;;5033017;28;20037;-65
2022/04/09 09:28:23;;;;;;;5.97;1.00;;;;;;;;;;5030642;28;20435;-64
2022/04/09 09:30:49;;;;;;;10.65;1.27;;;;;;;;;;5031335;28;20099;-64
2022/04/09 09:33:15;;;;;;;3.58;0.80;;;;;;;;;;5034195;28;20049;-64
2022/04/09 09:35:49;;;;;;;8.13;1.67;;;;;;;;;;5043196;28;20091;-64
2022/04/09 09:38:19;;;;;;;15.65;1.75;;;;;;;;;;5051038;28;20060;-64
2022/04/09 09:40:46;;;;;;;4.63;0.93;;;;;;;;;;5049709;28;20047;-66
2022/04/09 09:43:14;;;;;;;6.85;1.10;;;;;;;;;;5051813;28;20119;-65
2022/04/09 09:45:41;;;;;;;8.23;1.10;;;;;;;;;;5052970;28;20093;-65
2022/04/09 09:48:18;;;;;;;8.15;1.33;;;;;;;;;;5052544;28;20137;-65
2022/04/09 09:50:45;;;;;;;5.40;1.20;;;;;;;;;;5051751;28;20120;-67
2022/04/09 09:53:11;;;;;;;5.78;1.50;;;;;;;;;;5065477;28;20132;-65
2022/04/09 09:55:43;;;;;;;9.15;1.10;;;;;;;;;;5032777;28;20128;-65
2022/04/09 09:58:11;;;;;;;10.18;1.15;;;;;;;;;;5027056;28;20048;-65
2022/04/09 10:00:38;;;;;;;5.72;1.30;;;;;;;;;;5029686;28;20044;-65
2022/04/09 10:03:05;;;;;;;9.25;1.73;;;;;;;;;;5045556;28;20077;-65
2022/04/09 10:05:31;;;;;;;9.27;1.65;;;;;;;;;;5043642;28;20033;-65
2022/04/09 10:07:57;;;;;;;11.73;2.60;;;;;;;;;;5048846;28;20048;-65
2022/04/09 10:10:26;;;;;;;8.82;1.50;;;;;;;;;;5033950;28;20072;-65
2022/04/09 10:12:55;;;;;;;12.15;1.77;;;;;;;;;;5067739;28;20213;-65
2022/04/09 10:15:24;;;;;;;8.57;1.48;;;;;;;;;;5053082;28;20171;-65
2022/04/09 10:17:52;;;;;;;12.82;1.92;;;;;;;;;;5051169;28;20116;-65
2022/04/09 10:20:19;;;;;;;9.15;1.70;;;;;;;;;;5053660;28;20049;-65
2022/04/09 10:22:46;;;;;;;9.60;2.30;;;;;;;;;;5055320;28;20432;-65
2022/04/09 10:25:15;;;;;;;8.63;1.40;;;;;;;;;;5053411;28;20124;-75
2022/04/09 10:27:44;;;;;;;6.45;1.30;;;;;;;;;;5034792;28;20037;-65
2022/04/09 10:30:15;;;;;;;11.65;1.73;;;;;;;;;;5051629;28;20091;-65
2022/04/09 10:32:43;;;;;;;11.82;2.53;;;;;;;;;;5053905;28;20045;-65
2022/04/09 10:35:28;;;;;;;12.52;1.73;;;;;;;;;;5051347;28;20056;-65
2022/04/09 10:38:14;;;;;;;10.00;1.77;;;;;;;;;;5052930;28;20052;-65
2022/04/09 10:40:48;;;;;;;11.70;1.75;;;;;;;;;;5054740;28;20059;-65
2022/04/09 10:43:22;;;;;;;10.57;1.45;;;;;;;;;;5062788;28;20338;-65
2022/04/09 10:46:02;;;;;;;5.43;1.35;;;;;;;;;;5054128;28;20033;-65
2022/04/09 10:48:30;;;;;;;6.43;1.10;;;;;;;;;;5048483;28;20049;-65
2022/04/09 10:51:04;;;;;;;7.88;1.50;;;;;;;;;;5050865;28;20036;-65
2022/04/09 10:53:30;;;;;;;;;;;;;;;;;;5050556;28;20045;-65
2022/04/09 10:56:27;;;;;;;6.63;1.38;;;;;;;;;;5051216;28;20326;-65
2022/04/09 10:59:00;;;;;;;5.93;1.30;;;;;;;;;;5067880;28;20041;-65
2022/04/09 11:01:49;;;;;;;8.15;1.48;;;;;;;;;;5047501;28;20041;-65
2022/04/09 11:04:29;;;;;;;8.80;1.50;;;;;;;;;;5066717;28;20055;-65
2022/04/09 11:07:05;;;;;;;9.57;1.95;;;;;;;;;;5063799;28;20076;-65
2022/04/09 11:09:42;;;;;;;9.48;1.80;;;;;;;;;;5048345;28;21429;-65
2022/04/09 11:12:09;;;;;;;10.60;1.90;;;;;;;;;;5066907;28;20041;-65
2022/04/09 11:14:43;;;;;;;13.85;2.47;;;;;;;;;;5050695;28;20124;-65
2022/04/09 11:17:16;;;;;;;6.30;1.80;;;;;;;;;;5033916;28;20049;-65
2022/04/09 11:19:43;;;;;;;10.80;1.92;;;;;;;;;;5033717;28;20048;-65
2022/04/09 11:22:10;;;;;;;4.93;0.90;;;;;;;;;;5050770;28;20044;-65
2022/04/09 11:24:37;;;;;;;4.75;1.20;;;;;;;;;;5049455;28;20061;-65
2022/04/09 11:27:03;;;;;;;5.03;1.20;;;;;;;;;;5033045;28;20048;-65
2022/04/09 11:29:33;;;;;;;6.00;0.95;;;;;;;;;;5065945;28;20055;-65
2022/04/09 11:32:00;;;;;;;7.13;1.23;;;;;;;;;;5051486;28;20037;-65
2022/04/09 11:34:26;;;;;;;5.13;1.00;;;;;;;;;;5050877;28;20449;-65
2022/04/09 11:37:09;;;;;;;5.07;0.90;;;;;;;;;;5050411;28;20041;-65
2022/04/09 11:39:42;;;;;;;3.97;0.70;;;;;;;;;;5051195;28;20075;-65
2022/04/09 11:42:09;;;;;;;1.30;0.50;;;;;;;;;;5050646;28;20484;-65
2022/04/09 11:44:38;;;;;;;3.08;0.50;;;;;;;;;;5050944;28;20055;-65
2022/04/09 11:47:09;;;;;;;0.88;0.32;;;;;;;;;;5049133;28;20278;-68
2022/04/09 11:49:35;;;;;;;5.07;0.95;;;;;;;;;;5065136;28;20052;-65
2022/04/09 11:52:01;;;;;;;3.35;1.00;;;;;;;;;;5049857;28;20080;-65
2022/04/09 11:54:36;;;;;;;7.07;1.58;;;;;;;;;;5050611;28;20052;-65
2022/04/09 11:57:03;;;;;;;8.00;1.20;;;;;;;;;;5053823;28;20058;-67
2022/04/09 11:59:30;;;;;;;8.20;1.20;;;;;;;;;;5065826;28;20116;-65
2022/04/09 12:01:57;;;;;;;8.07;1.30;;;;;;;;;;5050350;28;20044;-65
2022/04/09 12:04:24;;;;;;;4.55;1.30;;;;;;;;;;5048865;28;20072;-65
2022/04/09 12:06:51;;;;;;;7.30;1.40;;;;;;;;;;5049227;28;20053;-65
2022/04/09 12:09:17;;;;;;;7.45;1.20;;;;;;;;;;5050401;28;20445;-65
2022/04/09 12:11:51;;;;;;;10.60;2.03;;;;;;;;;;5046883;28;20370;-65
2022/04/09 12:14:20;;;;;;;5.75;1.40;;;;;;;;;;5050999;28;20044;-65
2022/04/09 12:16:46;;;;;;;5.57;1.23;;;;;;;;;;5065436;28;20045;-65
2022/04/09 12:19:12;;;;;;;6.43;1.45;;;;;;;;;;5050381;28;20493;-66
2022/04/09 12:21:38;;;;;;;7.60;1.70;;;;;;;;;;5051505;28;20044;-65
2022/04/09 12:24:05;;;;;;;15.20;2.10;;;;;;;;;;5065552;28;20182;-65
2022/04/09 12:26:32;;;;;;;9.48;2.15;;;;;;;;;;5065781;28;20052;-65
2022/04/09 12:29:07;;;;;;;10.38;2.15;;;;;;;;;;5051002;28;20438;-65
2022/04/09 12:31:33;;;;;;;8.07;2.20;;;;;;;;;;5049849;28;20124;-65
2022/04/09 12:34:00;;;;;;;8.38;2.17;;;;;;;;;;5051047;28;20049;-65
2022/04/09 12:36:27;;;;;;;8.75;2.33;;;;;;;;;;5065018;28;20576;-65
2022/04/09 12:38:53;;;;;;;7.90;1.77;;;;;;;;;;5065765;28;20087;-65
2022/04/09 12:41:19;;;;;;;6.22;2.00;;;;;;;;;;5066191;28;20048;-65
2022/04/09 12:43:47;;;;;;;10.13;1.70;;;;;;;;;;5050682;28;20041;-65
2022/04/09 12:46:18;;;;;;;8.20;1.88;;;;;;;;;;5064927;28;20056;-65
2022/04/09 12:48:49;;;;;;;10.68;1.75;;;;;;;;;;5050485;28;20493;-65
2022/04/09 12:51:18;;;;;;;4.60;1.00;;;;;;;;;;5050746;28;20060;-65
2022/04/09 12:53:45;;;;;;;6.25;1.00;;;;;;;;;;5048609;28;20045;-65
2022/04/09 12:56:13;;;;;;;6.13;1.10;;;;;;;;;;5048826;28;20138;-65
2022/04/09 12:58:40;;;;;;;3.92;0.65;;;;;;;;;;5065051;28;20373;-65
2022/04/09 13:01:06;;;;;;;4.68;0.82;;;;;;;;;;5049415;28;20041;-65
2022/04/09 13:03:33;;;;;;;5.50;1.40;;;;;;;;;;5049938;28;20915;-65
2022/04/09 13:05:59;;;;;;;6.80;2.33;;;;;;;;;;5050174;28;20056;-65
2022/04/09 13:08:26;;;;;;;7.97;1.70;;;;;;;;;;5053058;28;20096;-65
2022/04/09 13:10:52;;;;;;;6.53;1.58;;;;;;;;;;5050275;28;20086;-65
2022/04/09 13:13:18;;;;;;;5.40;0.95;;;;;;;;;;5049022;28;20427;-65
2022/04/09 13:15:45;;;;;;;6.00;1.05;;;;;;;;;;5035985;28;20106;-65
2022/04/09 13:18:12;;;;;;;7.57;1.20;;;;;;;;;;5052971;28;20076;-65
2022/04/09 13:20:38;;;;;;;4.13;1.10;;;;;;;;;;5061199;28;20033;-70
2022/04/09 13:23:05;;;;;;;8.25;1.15;;;;;;;;;;5049869;28;20048;-65
2022/04/09 13:25:32;;;;;;;7.18;1.35;;;;;;;;;;5052696;28;20079;-64
2022/04/09 13:27:59;;;;;;;5.72;1.02;;;;;;;;;;5065499;28;20037;-65
2022/04/09 13:30:26;;;;;;;6.50;1.50;;;;;;;;;;5049128;28;20426;-66
2022/04/09 13:32:53;;;;;;;5.93;1.20;;;;;;;;;;5061623;28;20048;-65
2022/04/09 13:35:23;;;;;;;8.95;1.60;;;;;;;;;;5048365;28;20060;-65
2022/04/09 13:37:50;;;;;;;10.38;1.40;;;;;;;;;;5048005;28;20535;-65
2022/04/09 13:40:16;;;;;;;6.57;1.42;;;;;;;;;;5028203;28;20136;-65
2022/04/09 13:42:43;;;;;;;12.98;1.83;;;;;;;;;;5042212;28;20057;-65
2022/04/09 13:45:11;;;;;;;7.57;1.55;;;;;;;;;;5048520;28;20079;-65
2022/04/09 13:47:37;;;;;;;10.57;2.13;;;;;;;;;;5050334;28;20486;-64
2022/04/09 13:50:04;;;;;;;10.43;1.83;;;;;;;;;;5050758;28;20120;-64
2022/04/09 13:52:30;;;;;;;8.52;1.63;;;;;;;;;;5033666;28;20057;-65
2022/04/09 13:54:57;;;;;;;12.55;1.73;;;;;;;;;;5053648;28;20060;-65
2022/04/09 13:57:23;;;;;;;7.43;1.95;;;;;;;;;;5051692;28;20047;-65
2022/04/09 13:59:49;;;;;;;10.95;1.77;;;;;;;;;;5036688;28;20115;-65
2022/04/09 14:02:19;;;;;;;8.77;1.27;;;;;;;;;;5052066;28;20056;-65
2022/04/09 14:04:45;;;;;;;7.15;1.55;;;;;;;;;;5057271;28;20045;-65
2022/04/09 14:07:11;;;;;;;8.20;1.40;;;;;;;;;;5035797;28;20064;-65
2022/04/09 14:09:38;;;;;;;6.10;1.10;;;;;;;;;;5053556;28;20511;-65
2022/04/09 14:12:04;;;;;;;6.25;1.27;;;;;;;;;;5052345;28;20041;-65
2022/04/09 14:14:30;;;;;;;7.70;1.15;;;;;;;;;;5034448;28;20037;-65
2022/04/09 14:16:58;;;;;;;9.80;1.52;;;;;;;;;;5032801;28;20132;-65
2022/04/09 14:19:25;;;;;;;10.75;2.08;;;;;;;;;;5033924;28;20769;-65
2022/04/09 14:21:51;;;;;;;13.68;2.05;;;;;;;;;;5051867;28;20397;-65
2022/04/09 14:24:17;;;;;;;11.88;2.30;;;;;;;;;;5053326;28;20091;-65
2022/04/09 14:26:43;;;;;;;10.70;1.80;;;;;;;;;;5051934;28;20041;-64
2022/04/09 14:29:10;;;;;;;10.27;1.85;;;;;;;;;;5052275;28;20045;-65
2022/04/09 14:31:36;;;;;;;11.02;1.80;;;;;;;;;;5049200;28;20036;-65
2022/04/09 14:34:03;;;;;;;5.65;1.73;;;;;;;;;;5067373;28;20373;-65
2022/04/09 14:36:29;;;;;;;13.73;1.90;;;;;;;;;;5051797;28;20037;-65